NCAR-RAP Real-Time Weather Data

Output produced by METARs form (14 October 2019  23:31 UTC)
found at http://weather.rap.ucar.edu/surface/
 
KDFW 142314Z 14010KT 9SM BKN012 BKN110 OVC150 22/19 A2990 RMK AO2 RAB00E14 P0000 T02170194
KDFW 142253Z 15012KT 9SM FEW012 BKN120 OVC150 22/19 A2991 RMK AO2 RAE23 SLP121 P0000 T02220189
KDFW 142153Z 12009KT 10SM -RA FEW030 SCT075 BKN120 OVC150 22/19 A2990 RMK AO2 SLP120 P0000 T02220189
KDFW 142053Z 15009KT 10SM -RA FEW002 FEW030 BKN120 OVC160 24/18 A2992 RMK AO2 RAB10E20B51 SLP125 FU FEW002 W P0000 60000 T02390183 56017
KDFW 141953Z 15010KT 10SM FEW040 BKN160 OVC200 24/18 A2992 RMK AO2 SLP125 VIRGA ALQDS T02390178
KDFW 141853Z 18008KT 10SM SCT150 BKN190 24/17 A2994 RMK AO2 SLP133 VIRGA ALQDS T02390172
KDFW 141753Z 16008KT 10SM SCT150 BKN210 23/17 A2997 RMK AO2 SLP141 VIRGA DSNT SW T02330167 10233 20156 58011
KDFW 141653Z 14006KT 10SM SCT150 BKN210 22/16 A2998 RMK AO2 SLP147 T02220156
KDFW 141553Z 12006KT 10SM FEW030 SCT150 BKN200 21/14 A3000 RMK AO2 SLP153 VIRGA DSNT S T02060144
KDFW 141453Z 13006KT 10SM FEW030 SCT150 BKN210 18/13 A3000 RMK AO2 SLP154 VIRGA E-SW T01830133 53009
KDFW 141353Z 12006KT 10SM FEW050 SCT150 BKN200 17/13 A2999 RMK AO2 SLP150 VIRGA ALQDS T01720128
KDFW 141253Z 08005KT 10SM FEW060 SCT150 OVC190 16/12 A2998 RMK AO2 SLP145 VIRGA ALQDS T01610122
KDFW 141153Z 11004KT 10SM FEW120 BKN160 OVC200 16/12 A2998 RMK AO2 SLP145 VIRGA OHD-ALQDS T01560122 10167 20150 53005
KDFW 141053Z 12006KT 10SM FEW120 BKN190 OVC230 16/12 A2997 RMK AO2 SLP141 VIRGA OHD-ALQDS T01560122
KDFW 140953Z 11005KT 10SM BKN220 OVC250 16/12 A2996 RMK AO2 SLP139 VIRGA OHD-S-W T01560117
KDFW 140853Z 12006KT 10SM OVC230 16/12 A2996 RMK AO2 SLP139 T01560117 58002
KDFW 140753Z 11005KT 10SM BKN240 16/11 A2997 RMK AO2 SLP143 T01560111
KDFW 140653Z 11007KT 10SM BKN250 16/11 A2996 RMK AO2 SLP140 T01610106
KDFW 140553Z 15005KT 10SM BKN240 16/11 A2997 RMK AO2 SLP142 T01610106 10222 20156 402610122 58000
KDFW 140453Z 12004KT 10SM FEW200 BKN250 17/10 A2998 RMK AO2 SLP146 T01670100
KDFW 140353Z 11005KT 10SM BKN250 17/10 A2997 RMK AO2 SLP145 T01720100
KDFW 140253Z 14005KT 10SM BKN250 17/09 A2997 RMK AO2 SLP143 T01720094 51014
KDFW 140153Z 16007KT 10SM FEW110 SCT250 19/09 A2996 RMK AO2 SLP140 T01890094
KDFW 140053Z 16007KT 10SM FEW110 SCT250 20/08 A2994 RMK AO2 SLP134 T02000083
KDFW 132353Z 16010KT 10SM FEW110 FEW250 22/07 A2993 RMK AO2 SLP129 T02220072 10261 20222 53001
KDFW 132253Z 17009KT 10SM FEW110 FEW250 24/07 A2992 RMK AO2 SLP126 T02440067
KDFW 132153Z 18011KT 10SM FEW110 FEW250 25/06 A2992 RMK AO2 SLP125 T02500061
KDFW 132053Z 17012G17KT 10SM FEW110 FEW250 26/06 A2992 RMK AO2 SLP126 T02560056 56024
KDFW 131953Z 22006KT 10SM FEW110 FEW250 25/05 A2994 RMK AO2 SLP133 T02500050
KDFW 131853Z 17008KT 10SM FEW110 FEW250 24/04 A2997 RMK AO2 SLP142 T02390044
KDFW 131753Z 20009KT 10SM FEW055 FEW110 SCT250 23/04 A3000 RMK AO2 SLP152 T02280039 10228 20144 58014
KDFW 131653Z VRB06KT 10SM FEW110 FEW250 21/04 A3002 RMK AO2 SLP162 T02110044
KDFW 131553Z 22006KT 10SM FEW055 SCT110 19/04 A3003 RMK AO2 SLP166 ACC SE-SW T01940044
KDFW 131453Z 17008KT 10SM FEW055 SCT140 18/05 A3004 RMK AO2 SLP167 T01780050 53005
KDFW 131353Z 17007KT 10SM BKN050 BKN140 16/05 A3003 RMK AO2 SLP167 T01560050
KDFW 131253Z 17007KT 10SM BKN050 15/04 A3002 RMK AO2 SLP163 T01500044
KDFW 131153Z 15004KT 10SM OVC050 14/05 A3002 RMK AO2 SLP162 T01440050 10144 20122 51001
KDFW 131053Z 14004KT 10SM OVC050 14/04 A3002 RMK AO2 SLP161 T01390044
KDFW 130953Z 12005KT 10SM OVC055 14/04 A3002 RMK AO2 SLP162 T01390044
KDFW 130853Z 11004KT 10SM BKN050 BKN070 BKN140 14/04 A3002 RMK AO2 SLP161 T01390039 55001
KDFW 130753Z 11004KT 10SM FEW050 BKN070 BKN140 13/04 A3001 RMK AO2 SLP159 T01330044
KDFW 130653Z 11003KT 10SM BKN060 BKN150 13/04 A3001 RMK AO2 SLP157 T01330039
KDFW 130553Z 00000KT 10SM BKN065 BKN140 13/05 A3002 RMK AO2 SLP162 T01280050 10161 20122 401890056 56003
KDFW 130453Z 18004KT 10SM SCT150 12/02 A3002 RMK AO2 SLP162 T01220022
KDFW 130353Z 16005KT 10SM FEW070 13/01 A3003 RMK AO2 SLP164 T01280011
KDFW 130253Z 16005KT 10SM FEW120 13/01 A3003 RMK AO2 SLP167 T01330006 58008
KDFW 130153Z 16004KT 10SM CLR 13/00 A3004 RMK AO2 SLP171 T01330000
KDFW 130053Z 13006KT 10SM CLR 14/M02 A3005 RMK AO2 SLP173 T01441022
KDFW 122353Z 12003KT 10SM FEW120 16/M04 A3006 RMK AO2 SLP175 T01611044 10189 20161 56020